Time;durP1;ratioP1;P1;durP2;ratioP2;P2;SDS_P1;SDS_P2;PMS_P1;PMS_P2;Temp;Humidity;BMP_temperature;BMP_pressure;BME280_temperature;BME280_humidity;BME280_pressure;Samples;Min_cycle;Max_cycle;Signal;HPM_P1;HPM_P2
2023/03/14 00:17:17;;;;;;;27.45;3.67;;;;;;;;;;5054537;28;20059;-59
2023/03/14 00:19:53;;;;;;;37.95;4.75;;;;;;;;;;5060262;28;20062;-54
2023/03/14 00:22:27;;;;;;;29.75;4.53;;;;;;;;;;5060334;28;20052;-57
2023/03/14 00:24:55;;;;;;;23.27;3.53;;;;;;;;;;5058114;28;20839;-58
2023/03/14 00:27:22;;;;;;;28.77;4.20;;;;;;;;;;5056371;28;20143;-58
2023/03/14 00:29:56;;;;;;;17.23;2.90;;;;;;;;;;5059289;28;20451;-59
2023/03/14 00:32:23;;;;;;;26.73;3.55;;;;;;;;;;5062246;28;20044;-58
2023/03/14 00:34:50;;;;;;;32.67;4.50;;;;;;;;;;5058220;28;20139;-59
2023/03/14 00:37:25;;;;;;;28.50;2.90;;;;;;;;;;5055518;28;20135;-52
2023/03/14 00:39:52;;;;;;;24.52;3.97;;;;;;;;;;5043397;28;20059;-52
2023/03/14 00:42:27;;;;;;;26.98;3.03;;;;;;;;;;5060937;28;20114;-54
2023/03/14 00:44:54;;;;;;;32.33;4.55;;;;;;;;;;5058012;28;20064;-55
2023/03/14 00:47:21;;;;;;;24.83;3.40;;;;;;;;;;5057490;28;20148;-52
2023/03/14 00:49:55;;;;;;;32.85;4.00;;;;;;;;;;5060296;28;20511;-55
2023/03/14 00:52:22;;;;;;;18.10;3.92;;;;;;;;;;5059556;28;20056;-54
2023/03/14 00:54:56;;;;;;;28.42;2.63;;;;;;;;;;5060001;28;20147;-55
2023/03/14 00:57:24;;;;;;;17.80;3.65;;;;;;;;;;5040033;28;20484;-53
2023/03/14 00:59:52;;;;;;;30.67;4.15;;;;;;;;;;5060728;28;20482;-49
2023/03/14 01:02:25;;;;;;;21.13;3.42;;;;;;;;;;5058606;28;20137;-53
2023/03/14 01:04:52;;;;;;;28.38;3.25;;;;;;;;;;5059918;28;20331;-50
2023/03/14 01:07:26;;;;;;;18.25;2.28;;;;;;;;;;5059104;28;20475;-54
2023/03/14 01:09:54;;;;;;;30.65;3.88;;;;;;;;;;5058909;28;20131;-50
2023/03/14 01:12:21;;;;;;;36.47;4.38;;;;;;;;;;5059826;28;20052;-50
2023/03/14 01:14:54;;;;;;;24.23;3.47;;;;;;;;;;5057170;28;20058;-51
2023/03/14 01:17:28;;;;;;;22.67;3.45;;;;;;;;;;5061956;28;20066;-65
2023/03/14 01:20:11;;;;;;;16.08;2.63;;;;;;;;;;5058983;28;20053;-59
2023/03/14 01:22:39;;;;;;;27.38;3.10;;;;;;;;;;5058732;28;20055;-59
2023/03/14 01:25:15;;;;;;;21.30;2.50;;;;;;;;;;5062942;28;20059;-59
2023/03/14 01:27:48;;;;;;;29.20;3.45;;;;;;;;;;5057108;28;20067;-59
2023/03/14 01:30:15;;;;;;;22.58;3.03;;;;;;;;;;5061006;28;20045;-59
2023/03/14 01:32:43;;;;;;;24.73;2.92;;;;;;;;;;5059933;28;20084;-59
2023/03/14 01:35:16;;;;;;;21.50;3.13;;;;;;;;;;5059357;28;21649;-58
2023/03/14 01:37:44;;;;;;;20.83;2.72;;;;;;;;;;5059027;28;20063;-59
2023/03/14 01:40:17;;;;;;;12.85;1.90;;;;;;;;;;5059665;28;20048;-59
2023/03/14 01:42:45;;;;;;;22.45;2.85;;;;;;;;;;5060428;28;20059;-59
2023/03/14 01:45:38;;;;;;;24.98;2.58;;;;;;;;;;5058447;28;20056;-59
2023/03/14 01:48:12;;;;;;;24.85;3.10;;;;;;;;;;5059757;28;20130;-59
2023/03/14 01:50:39;;;;;;;29.00;3.35;;;;;;;;;;5060143;28;20049;-58
2023/03/14 01:53:13;;;;;;;22.92;3.05;;;;;;;;;;5059308;28;20435;-66
2023/03/14 01:55:41;;;;;;;16.48;2.25;;;;;;;;;;5056421;28;20171;-66
2023/03/14 01:58:15;;;;;;;19.65;2.50;;;;;;;;;;5060276;28;20422;-67
2023/03/14 02:00:42;;;;;;;28.40;2.92;;;;;;;;;;5057036;28;20057;-66
2023/03/14 02:03:11;;;;;;;26.23;3.88;;;;;;;;;;5057432;28;20053;-55
2023/03/14 02:05:46;;;;;;;32.35;3.50;;;;;;;;;;5062110;28;20079;-65
2023/03/14 02:08:15;;;;;;;20.77;3.45;;;;;;;;;;5061065;28;20045;-65
2023/03/14 02:10:44;;;;;;;24.70;4.43;;;;;;;;;;5056577;28;20399;-65
2023/03/14 02:13:19;;;;;;;38.70;3.42;;;;;;;;;;5060076;28;20094;-65
2023/03/14 02:15:53;;;;;;;20.25;3.28;;;;;;;;;;5055071;28;20768;-65
2023/03/14 02:18:34;;;;;;;29.17;4.15;;;;;;;;;;5055640;28;20648;-65
2023/03/14 02:21:13;;;;;;;34.72;4.28;;;;;;;;;;5058601;28;20070;-67
2023/03/14 02:23:59;;;;;;;27.63;2.85;;;;;;;;;;5061718;28;20135;-67
2023/03/14 02:26:36;;;;;;;31.52;2.78;;;;;;;;;;5063755;28;20095;-67
2023/03/14 02:29:10;;;;;;;22.63;3.22;;;;;;;;;;5061558;28;20048;-68
2023/03/14 02:31:37;;;;;;;34.17;3.45;;;;;;;;;;5062711;28;20049;-64
2023/03/14 02:34:05;;;;;;;35.50;4.20;;;;;;;;;;5062235;28;20061;-49
2023/03/14 02:36:38;;;;;;;31.70;3.17;;;;;;;;;;5060763;28;20052;-52
2023/03/14 02:39:05;;;;;;;33.28;3.10;;;;;;;;;;5059479;28;20040;-54
2023/03/14 02:41:39;;;;;;;20.75;3.13;;;;;;;;;;5046573;28;20049;-52
2023/03/14 02:44:06;;;;;;;29.65;3.78;;;;;;;;;;5063146;28;20055;-53
2023/03/14 02:46:33;;;;;;;36.22;3.53;;;;;;;;;;5059951;28;20143;-53
2023/03/14 02:49:14;;;;;;;32.55;3.92;;;;;;;;;;5063176;28;20049;-67
2023/03/14 02:51:42;;;;;;;42.35;3.92;;;;;;;;;;5061818;28;20099;-67
2023/03/14 02:54:16;;;;;;;53.42;4.95;;;;;;;;;;5061556;28;20090;-67
2023/03/14 02:56:43;;;;;;;38.95;4.50;;;;;;;;;;5062954;28;20056;-68
2023/03/14 02:59:17;;;;;;;39.47;4.30;;;;;;;;;;5060761;28;21518;-53
2023/03/14 03:01:44;;;;;;;38.55;4.18;;;;;;;;;;5058995;28;20569;-53
2023/03/14 03:04:18;;;;;;;46.80;4.93;;;;;;;;;;5060349;28;20564;-66
2023/03/14 03:06:46;;;;;;;36.72;3.85;;;;;;;;;;5062556;28;20053;-66
2023/03/14 03:09:13;;;;;;;49.58;4.53;;;;;;;;;;5061735;28;20057;-66
2023/03/14 03:11:46;;;;;;;32.13;4.45;;;;;;;;;;5061919;28;20547;-67
2023/03/14 03:14:13;;;;;;;40.35;3.70;;;;;;;;;;5043930;28;20139;-66
2023/03/14 03:16:54;;;;;;;39.38;3.85;;;;;;;;;;5061480;28;20492;-66
2023/03/14 03:19:28;;;;;;;35.47;4.47;;;;;;;;;;5062423;28;20110;-59
2023/03/14 03:22:01;;;;;;;49.00;4.07;;;;;;;;;;5060694;28;20051;-59
2023/03/14 03:24:29;;;;;;;40.47;3.90;;;;;;;;;;5061816;28;20459;-59
2023/03/14 03:26:56;;;;;;;69.22;6.45;;;;;;;;;;5043919;28;20069;-59
2023/03/14 03:29:29;;;;;;;66.78;4.57;;;;;;;;;;5064162;28;20163;-54
2023/03/14 03:31:57;;;;;;;38.75;4.80;;;;;;;;;;5062546;28;20584;-51
2023/03/14 03:34:30;;;;;;;45.83;4.53;;;;;;;;;;5060102;28;20131;-52
2023/03/14 03:36:58;;;;;;;38.42;5.32;;;;;;;;;;5059446;28;20155;-55
2023/03/14 03:39:25;;;;;;;55.53;4.78;;;;;;;;;;5041270;28;20173;-51
2023/03/14 03:41:58;;;;;;;46.65;5.28;;;;;;;;;;5056940;28;20057;-48
2023/03/14 03:44:25;;;;;;;56.28;4.80;;;;;;;;;;5062189;28;20048;-54
2023/03/14 03:46:53;;;;;;;62.38;5.55;;;;;;;;;;5062114;28;20063;-58
2023/03/14 03:49:29;;;;;;;52.03;4.93;;;;;;;;;;5061003;28;20048;-58
2023/03/14 03:51:57;;;;;;;56.83;5.35;;;;;;;;;;5062253;28;20067;-58
2023/03/14 03:54:30;;;;;;;77.68;7.28;;;;;;;;;;5062040;28;20140;-58
2023/03/14 03:56:58;;;;;;;59.30;6.07;;;;;;;;;;5063213;28;20082;-66
2023/03/14 03:59:25;;;;;;;59.22;6.22;;;;;;;;;;5059672;28;20140;-58
2023/03/14 04:01:58;;;;;;;58.03;5.85;;;;;;;;;;5060905;28;20078;-59
2023/03/14 04:04:25;;;;;;;68.68;5.57;;;;;;;;;;5045620;28;20052;-58
2023/03/14 04:06:59;;;;;;;63.53;5.82;;;;;;;;;;5060692;28;20110;-59
2023/03/14 04:09:26;;;;;;;82.20;6.80;;;;;;;;;;5060329;28;20140;-58
2023/03/14 04:11:54;;;;;;;70.85;5.95;;;;;;;;;;5046078;28;20059;-58
2023/03/14 04:14:27;;;;;;;80.50;7.47;;;;;;;;;;5059266;28;20052;-57
2023/03/14 04:17:01;;;;;;;74.40;7.32;;;;;;;;;;5058630;28;20075;-58
2023/03/14 04:19:42;;;;;;;63.47;6.95;;;;;;;;;;5045696;28;20053;-58
2023/03/14 04:22:09;;;;;;;71.28;6.57;;;;;;;;;;5046210;28;20052;-59
2023/03/14 04:24:43;;;;;;;81.60;7.05;;;;;;;;;;5044988;28;20052;-49
2023/03/14 04:27:10;;;;;;;68.10;7.05;;;;;;;;;;5038218;28;20416;-59
2023/03/14 04:29:38;;;;;;;67.97;7.60;;;;;;;;;;5042513;28;20579;-59
2023/03/14 04:32:11;;;;;;;90.20;6.88;;;;;;;;;;5039801;28;20049;-59
2023/03/14 04:34:38;;;;;;;85.13;7.05;;;;;;;;;;5045256;28;20052;-59
2023/03/14 04:37:13;;;;;;;69.80;6.75;;;;;;;;;;5044055;28;20080;-60
2023/03/14 04:39:40;;;;;;;97.15;8.80;;;;;;;;;;5037833;28;20077;-59
2023/03/14 04:42:07;;;;;;;105.95;8.38;;;;;;;;;;5042014;28;20049;-59
2023/03/14 04:44:43;;;;;;;79.50;6.55;;;;;;;;;;5043546;28;20072;-65
2023/03/14 04:47:10;;;;;;;96.15;8.07;;;;;;;;;;5042513;28;20053;-65
2023/03/14 04:49:43;;;;;;;74.63;7.28;;;;;;;;;;5045340;28;20053;-65
2023/03/14 04:52:11;;;;;;;81.32;6.72;;;;;;;;;;5042924;28;20144;-65
2023/03/14 04:54:38;;;;;;;84.40;7.78;;;;;;;;;;5042698;28;20136;-59
2023/03/14 04:57:11;;;;;;;74.97;7.70;;;;;;;;;;5044095;28;20052;-49
2023/03/14 04:59:38;;;;;;;87.30;6.53;;;;;;;;;;5041606;28;20060;-48
2023/03/14 05:02:12;;;;;;;88.38;8.32;;;;;;;;;;5032902;28;20053;-50
2023/03/14 05:04:39;;;;;;;87.30;8.13;;;;;;;;;;5035970;28;20084;-52
2023/03/14 05:07:06;;;;;;;75.90;6.40;;;;;;;;;;5032708;28;20523;-49
2023/03/14 05:09:41;;;;;;;75.70;7.30;;;;;;;;;;5038866;28;20076;-51
2023/03/14 05:12:08;;;;;;;79.43;7.32;;;;;;;;;;5038885;28;20082;-46
2023/03/14 05:14:41;;;;;;;93.70;9.65;;;;;;;;;;5040560;28;20059;-48
2023/03/14 05:17:16;;;;;;;79.72;7.50;;;;;;;;;;5044797;28;20575;-45
2023/03/14 05:19:57;;;;;;;91.32;8.45;;;;;;;;;;5055221;28;20052;-47
2023/03/14 05:22:31;;;;;;;97.32;8.35;;;;;;;;;;5055491;28;20052;-47
2023/03/14 05:25:06;;;;;;;87.18;7.97;;;;;;;;;;5056232;28;20060;-48
2023/03/14 05:27:34;;;;;;;93.20;8.68;;;;;;;;;;5049404;28;20088;-46
2023/03/14 05:30:01;;;;;;;;;;;;;;;;;;5058851;28;20080;-46
2023/03/14 05:32:35;;;;;;;71.88;7.28;;;;;;;;;;5058211;28;19920;-65
2023/03/14 05:35:03;;;;;;;86.00;10.43;;;;;;;;;;5056888;28;20056;-64
2023/03/14 05:37:37;;;;;;;73.40;6.95;;;;;;;;;;5058626;28;20080;-62
2023/03/14 05:40:06;;;;;;;89.15;6.60;;;;;;;;;;5050866;28;20052;-64
2023/03/14 05:42:33;;;;;;;90.05;8.10;;;;;;;;;;5055130;28;20088;-64
2023/03/14 05:45:07;;;;;;;85.78;8.43;;;;;;;;;;5050396;28;20163;-65
2023/03/14 05:47:35;;;;;;;80.05;8.98;;;;;;;;;;5047139;28;20060;-64
2023/03/14 05:50:02;;;;;;;83.57;6.93;;;;;;;;;;5050236;28;20113;-47
2023/03/14 05:52:35;;;;;;;72.95;7.07;;;;;;;;;;5049983;28;20059;-48
2023/03/14 05:55:03;;;;;;;86.57;7.05;;;;;;;;;;5048104;28;20051;-49
2023/03/14 05:57:36;;;;;;;82.18;6.90;;;;;;;;;;5046963;28;20496;-48
2023/03/14 06:00:04;;;;;;;114.68;9.18;;;;;;;;;;5050288;28;20044;-48
2023/03/14 06:02:31;;;;;;;75.47;8.55;;;;;;;;;;5055945;28;20148;-50
2023/03/14 06:05:05;;;;;;;91.00;7.72;;;;;;;;;;5055138;28;20053;-50
2023/03/14 06:07:33;;;;;;;79.22;6.97;;;;;;;;;;5054997;28;20520;-68
2023/03/14 06:10:07;;;;;;;83.18;8.05;;;;;;;;;;5060469;28;20417;-57
2023/03/14 06:12:34;;;;;;;77.85;7.03;;;;;;;;;;5057110;28;20117;-58
2023/03/14 06:15:01;;;;;;;98.15;7.90;;;;;;;;;;5060946;28;20053;-55
2023/03/14 06:17:49;;;;;;;92.93;6.88;;;;;;;;;;5054971;28;20407;-58
2023/03/14 06:20:23;;;;;;;83.60;6.50;;;;;;;;;;5058056;28;20060;-56
2023/03/14 06:22:57;;;;;;;54.30;5.50;;;;;;;;;;5059560;28;20056;-57
2023/03/14 06:25:25;;;;;;;48.15;7.68;;;;;;;;;;5058089;28;20054;-60
2023/03/14 06:27:58;;;;;;;53.88;7.85;;;;;;;;;;5056666;28;20044;-60
2023/03/14 06:30:25;;;;;;;29.63;5.85;;;;;;;;;;5058354;28;20049;-60
2023/03/14 06:32:53;;;;;;;58.88;6.75;;;;;;;;;;5056857;28;20055;-60
2023/03/14 06:35:26;;;;;;;27.05;4.95;;;;;;;;;;5040979;28;20053;-60
2023/03/14 06:37:54;;;;;;;22.63;4.00;;;;;;;;;;5056688;28;20045;-60
2023/03/14 06:40:28;;;;;;;25.70;4.15;;;;;;;;;;5058628;28;20535;-60
2023/03/14 06:42:55;;;;;;;28.15;4.20;;;;;;;;;;5059735;28;20125;-60
2023/03/14 06:45:22;;;;;;;20.95;3.70;;;;;;;;;;5059431;28;20087;-60
2023/03/14 06:47:55;;;;;;;35.40;4.82;;;;;;;;;;5056782;28;20462;-59
2023/03/14 06:50:23;;;;;;;39.28;5.45;;;;;;;;;;5057535;28;20099;-60
2023/03/14 06:52:56;;;;;;;67.53;7.50;;;;;;;;;;5040352;28;20059;-60
2023/03/14 06:55:23;;;;;;;31.17;4.00;;;;;;;;;;5057696;28;20086;-60
2023/03/14 06:57:51;;;;;;;36.10;4.03;;;;;;;;;;5057115;28;20049;-60
2023/03/14 07:00:24;;;;;;;32.08;4.35;;;;;;;;;;5060514;28;20053;-60
2023/03/14 07:02:52;;;;;;;35.60;4.57;;;;;;;;;;5056441;28;20434;-59
2023/03/14 07:05:26;;;;;;;34.80;4.55;;;;;;;;;;5061285;28;20098;-60
2023/03/14 07:07:53;;;;;;;42.67;4.57;;;;;;;;;;5059739;28;20052;-60
2023/03/14 07:10:20;;;;;;;42.30;4.25;;;;;;;;;;5061819;28;20056;-59
2023/03/14 07:12:54;;;;;;;45.45;5.55;;;;;;;;;;5060801;28;20139;-50
2023/03/14 07:15:21;;;;;;;34.17;4.63;;;;;;;;;;5046415;28;20131;-51
2023/03/14 07:18:08;;;;;;;42.08;4.78;;;;;;;;;;5058354;28;20048;-55
2023/03/14 07:20:42;;;;;;;39.83;5.03;;;;;;;;;;5061949;28;20131;-53
2023/03/14 07:23:17;;;;;;;33.97;5.10;;;;;;;;;;5062148;28;20056;-59
2023/03/14 07:25:45;;;;;;;53.65;5.88;;;;;;;;;;5060446;28;20143;-59
2023/03/14 07:28:12;;;;;;;33.20;4.30;;;;;;;;;;5061610;28;20166;-59
2023/03/14 07:30:47;;;;;;;29.50;4.15;;;;;;;;;;5062822;28;20411;-59
2023/03/14 07:33:14;;;;;;;44.53;4.40;;;;;;;;;;5063029;28;20099;-59
2023/03/14 07:35:41;;;;;;;38.50;4.55;;;;;;;;;;5061508;28;20147;-60
2023/03/14 07:38:15;;;;;;;39.03;4.63;;;;;;;;;;5045006;28;20396;-60
2023/03/14 07:40:43;;;;;;;43.53;4.70;;;;;;;;;;5063752;28;20056;-48
2023/03/14 07:43:16;;;;;;;32.58;4.03;;;;;;;;;;5061290;28;20361;-46
2023/03/14 07:45:46;;;;;;;46.90;4.85;;;;;;;;;;5063249;28;20044;-53
2023/03/14 07:48:17;;;;;;;51.38;5.18;;;;;;;;;;5060138;28;20148;-54
2023/03/14 07:50:51;;;;;;;34.10;4.45;;;;;;;;;;5061845;28;20093;-54
2023/03/14 07:53:19;;;;;;;41.15;4.88;;;;;;;;;;5062915;28;20048;-50
2023/03/14 07:55:53;;;;;;;34.67;5.28;;;;;;;;;;5061014;28;20069;-53
2023/03/14 07:58:21;;;;;;;;;;;;;;;;;;5060981;28;20048;-54
2023/03/14 08:00:49;;;;;;;28.23;5.43;;;;;;;;;;5062111;28;19925;-52
2023/03/14 08:03:22;;;;;;;31.02;4.13;;;;;;;;;;5061895;28;20076;-52
2023/03/14 08:05:50;;;;;;;31.02;3.50;;;;;;;;;;5059490;28;20191;-48
2023/03/14 08:08:24;;;;;;;37.95;4.78;;;;;;;;;;5064598;28;20062;-59
2023/03/14 08:10:51;;;;;;;33.00;4.25;;;;;;;;;;5058934;28;20051;-60
2023/03/14 08:13:19;;;;;;;30.95;4.53;;;;;;;;;;5061741;28;20060;-59
2023/03/14 08:15:52;;;;;;;43.55;5.22;;;;;;;;;;5060949;28;20389;-59
2023/03/14 08:18:26;;;;;;;28.92;3.60;;;;;;;;;;5053165;28;20579;-54
2023/03/14 08:21:00;;;;;;;41.75;5.50;;;;;;;;;;5043452;28;20045;-58
2023/03/14 08:23:28;;;;;;;23.88;3.35;;;;;;;;;;5043162;28;20432;-64
2023/03/14 08:25:55;;;;;;;37.05;4.43;;;;;;;;;;5043251;28;20052;-65
2023/03/14 08:28:30;;;;;;;35.83;3.95;;;;;;;;;;5044952;28;20049;-65
2023/03/14 08:30:58;;;;;;;34.50;4.50;;;;;;;;;;5044257;28;20127;-64
2023/03/14 08:33:32;;;;;;;43.13;4.60;;;;;;;;;;5045605;28;20056;-65
2023/03/14 08:36:00;;;;;;;34.83;4.72;;;;;;;;;;5048163;28;20057;-65
2023/03/14 08:38:28;;;;;;;21.95;3.65;;;;;;;;;;5037135;28;20416;-50
2023/03/14 08:41:08;;;;;;;35.22;3.85;;;;;;;;;;5044485;28;20049;-52
2023/03/14 08:43:35;;;;;;;38.92;3.83;;;;;;;;;;5044594;28;20053;-47
2023/03/14 08:46:09;;;;;;;29.90;3.97;;;;;;;;;;5046187;28;20132;-52
2023/03/14 08:48:37;;;;;;;31.92;3.60;;;;;;;;;;5043228;28;20414;-51
2023/03/14 08:51:12;;;;;;;8.30;2.78;;;;;;;;;;5043760;28;20085;-65
2023/03/14 08:53:45;;;;;;;5.57;2.30;;;;;;;;;;5044727;28;20147;-64
2023/03/14 08:56:13;;;;;;;7.03;2.25;;;;;;;;;;5044001;28;20055;-65
2023/03/14 08:58:47;;;;;;;1.80;1.52;;;;;;;;;;5042460;28;20307;-65
2023/03/14 09:01:14;;;;;;;6.53;1.92;;;;;;;;;;5044985;28;20044;-65
2023/03/14 09:03:41;;;;;;;1.60;1.50;;;;;;;;;;5047930;28;20048;-65
2023/03/14 09:06:17;;;;;;;4.50;1.50;;;;;;;;;;5046185;28;20515;-59
2023/03/14 09:08:45;;;;;;;2.90;1.90;;;;;;;;;;5042793;28;20049;-59
2023/03/14 09:11:19;;;;;;;5.68;1.63;;;;;;;;;;5045662;28;20162;-60
2023/03/14 09:13:46;;;;;;;1.58;1.45;;;;;;;;;;5040992;28;20131;-59
2023/03/14 09:16:13;;;;;;;2.80;1.48;;;;;;;;;;5043741;28;20053;-59
2023/03/14 09:18:59;;;;;;;5.53;1.70;;;;;;;;;;5053085;28;20047;-49
2023/03/14 09:21:33;;;;;;;3.20;1.90;;;;;;;;;;5059577;28;20427;-47
2023/03/14 09:24:07;;;;;;;3.22;1.80;;;;;;;;;;5055658;28;20049;-47
2023/03/14 09:26:34;;;;;;;2.67;1.70;;;;;;;;;;5061376;28;20534;-49
2023/03/14 09:29:02;;;;;;;2.85;1.63;;;;;;;;;;5059218;28;20139;-53
2023/03/14 09:31:36;;;;;;;2.78;1.80;;;;;;;;;;5059467;28;20048;-49
2023/03/14 09:34:05;;;;;;;4.35;2.20;;;;;;;;;;5059566;28;20063;-65
2023/03/14 09:36:37;;;;;;;3.42;1.90;;;;;;;;;;5061682;28;20139;-65
2023/03/14 09:39:12;;;;;;;3.28;1.80;;;;;;;;;;5058118;28;20409;-65
2023/03/14 09:41:41;;;;;;;4.65;1.70;;;;;;;;;;5042406;28;20128;-64
2023/03/14 09:44:33;;;;;;;5.43;1.88;;;;;;;;;;5059894;28;20157;-47
2023/03/14 09:47:03;;;;;;;4.80;2.03;;;;;;;;;;5061005;28;20056;-59
2023/03/14 09:49:39;;;;;;;3.33;2.20;;;;;;;;;;5058123;28;20143;-59
2023/03/14 09:52:14;;;;;;;3.38;1.90;;;;;;;;;;5061009;28;20051;-59
2023/03/14 09:54:50;;;;;;;3.55;1.83;;;;;;;;;;5061324;28;20135;-58
2023/03/14 09:57:19;;;;;;;3.45;2.15;;;;;;;;;;5057724;28;20226;-59
2023/03/14 09:59:55;;;;;;;6.47;2.70;;;;;;;;;;5059772;28;20131;-60
2023/03/14 10:02:23;;;;;;;5.90;3.03;;;;;;;;;;5059747;28;20052;-66
2023/03/14 10:04:57;;;;;;;6.05;2.75;;;;;;;;;;5058377;28;20056;-65
2023/03/14 10:07:25;;;;;;;;;;;;;;;;;;5055777;28;20072;-66
2023/03/14 10:10:02;;;;;;;9.20;3.13;;;;;;;;;;5058420;28;19927;-66
2023/03/14 10:12:35;;;;;;;6.38;2.97;;;;;;;;;;5057657;28;20068;-66
2023/03/14 10:15:10;;;;;;;7.85;2.85;;;;;;;;;;5060001;28;20045;-66
2023/03/14 10:17:39;;;;;;;10.38;2.58;;;;;;;;;;5060543;28;20087;-54
2023/03/14 10:20:32;;;;;;;5.45;2.40;;;;;;;;;;5058170;28;20394;-56
2023/03/14 10:23:05;;;;;;;;;;;;;;;;;;5059544;28;20052;-55
2023/03/14 10:25:35;;;;;;;9.43;2.50;;;;;;;;;;5059743;28;19963;-55
2023/03/14 10:28:28;;;;;;;3.80;1.98;;;;;;;;;;5059186;28;20044;-54
2023/03/14 10:30:56;;;;;;;5.57;2.00;;;;;;;;;;5061367;28;20135;-60
2023/03/14 10:33:31;;;;;;;5.38;2.00;;;;;;;;;;5057803;28;20048;-59
2023/03/14 10:36:03;;;;;;;6.65;2.03;;;;;;;;;;5059462;28;20063;-60
2023/03/14 10:38:41;;;;;;;4.50;1.98;;;;;;;;;;5057055;28;20053;-60
2023/03/14 10:41:16;;;;;;;4.78;1.85;;;;;;;;;;5058256;28;20055;-50
2023/03/14 10:43:57;;;;;;;2.90;1.48;;;;;;;;;;5061414;28;20048;-54
2023/03/14 10:46:26;;;;;;;3.00;1.48;;;;;;;;;;5062790;28;20084;-55
2023/03/14 10:49:11;;;;;;;3.10;1.90;;;;;;;;;;5063335;28;20443;-55
2023/03/14 10:51:38;;;;;;;4.15;1.65;;;;;;;;;;5062264;28;20078;-54
2023/03/14 10:54:25;;;;;;;3.97;1.60;;;;;;;;;;5059024;28;20482;-51
2023/03/14 10:57:00;;;;;;;6.28;2.05;;;;;;;;;;5060257;28;20053;-53
2023/03/14 10:59:36;;;;;;;2.95;2.08;;;;;;;;;;5064526;28;20118;-67
2023/03/14 11:02:15;;;;;;;5.70;2.00;;;;;;;;;;5061072;28;20052;-67
2023/03/14 11:04:48;;;;;;;4.40;1.88;;;;;;;;;;5060494;28;20068;-66
2023/03/14 11:07:25;;;;;;;2.92;1.25;;;;;;;;;;5060842;28;20060;-67
2023/03/14 11:10:01;;;;;;;3.17;1.65;;;;;;;;;;5060867;28;20053;-60
2023/03/14 11:12:35;;;;;;;6.20;1.55;;;;;;;;;;5062616;28;20087;-60
2023/03/14 11:15:05;;;;;;;3.90;1.55;;;;;;;;;;5062245;28;20049;-60
2023/03/14 11:17:46;;;;;;;3.80;1.70;;;;;;;;;;5062419;28;20140;-59
2023/03/14 11:20:31;;;;;;;3.75;1.58;;;;;;;;;;5060875;28;20053;-59
2023/03/14 11:23:14;;;;;;;5.45;1.63;;;;;;;;;;5060441;28;20061;-59
2023/03/14 11:25:45;;;;;;;1.95;1.30;;;;;;;;;;5061991;28;20074;-60
2023/03/14 11:28:23;;;;;;;4.65;1.08;;;;;;;;;;5063324;28;20132;-59
2023/03/14 11:31:09;;;;;;;2.70;1.20;;;;;;;;;;5060437;28;20423;-60
2023/03/14 11:33:57;;;;;;;6.88;1.50;;;;;;;;;;5058102;28;20060;-59
2023/03/14 11:36:29;;;;;;;2.55;0.82;;;;;;;;;;5058897;28;20102;-59
2023/03/14 11:39:08;;;;;;;2.20;1.20;;;;;;;;;;5061297;28;20060;-59
2023/03/14 11:41:35;;;;;;;5.47;1.17;;;;;;;;;;5060727;28;20061;-51
2023/03/14 11:44:05;;;;;;;3.45;1.30;;;;;;;;;;5062047;28;20064;-54
2023/03/14 11:46:41;;;;;;;4.65;1.60;;;;;;;;;;5061110;28;20060;-55
2023/03/14 11:49:25;;;;;;;3.63;1.30;;;;;;;;;;5062825;28;20507;-50
2023/03/14 11:52:03;;;;;;;3.25;1.95;;;;;;;;;;5064507;28;20140;-54
2023/03/14 11:54:35;;;;;;;5.32;1.92;;;;;;;;;;5042946;28;20152;-51
2023/03/14 11:57:19;;;;;;;4.72;1.80;;;;;;;;;;5060650;28;20050;-66
2023/03/14 11:59:52;;;;;;;5.38;1.65;;;;;;;;;;5062668;28;20475;-66
2023/03/14 12:02:56;;;;;;;2.17;1.27;;;;;;;;;;5061887;28;20527;-66
2023/03/14 12:05:34;;;;;;;5.07;2.72;;;;;;;;;;5062754;28;20052;-66
2023/03/14 12:08:01;;;;;;;3.67;1.40;;;;;;;;;;5059573;28;20052;-55
2023/03/14 12:10:29;;;;;;;3.15;1.35;;;;;;;;;;5062946;28;20052;-59
2023/03/14 12:13:03;;;;;;;2.55;1.90;;;;;;;;;;5063564;28;20536;-59
2023/03/14 12:15:30;;;;;;;3.47;2.00;;;;;;;;;;5061986;28;20139;-58
2023/03/14 12:18:03;;;;;;;1.77;1.13;;;;;;;;;;5060540;28;20563;-58
2023/03/14 12:20:38;;;;;;;5.45;1.52;;;;;;;;;;5059439;28;20072;-58
2023/03/14 12:23:12;;;;;;;2.47;1.00;;;;;;;;;;5057796;28;20055;-59
2023/03/14 12:25:40;;;;;;;2.83;1.35;;;;;;;;;;5057719;28;20143;-59
2023/03/14 12:28:30;;;;;;;2.75;1.50;;;;;;;;;;5063201;28;20052;-59
2023/03/14 12:31:17;;;;;;;2.10;1.00;;;;;;;;;;5057879;28;20063;-60
2023/03/14 12:34:03;;;;;;;2.50;1.10;;;;;;;;;;5061619;28;20107;-61
2023/03/14 12:36:30;;;;;;;;;;;;;;;;;;5061303;28;20063;-59
2023/03/14 12:39:15;;;;;;;2.22;1.15;;;;;;;;;;5061372;28;20073;-66
2023/03/14 12:41:44;;;;;;;2.33;1.30;;;;;;;;;;5058319;28;20534;-65
2023/03/14 12:44:30;;;;;;;3.72;1.10;;;;;;;;;;5059742;28;20085;-66
2023/03/14 12:47:21;;;;;;;1.90;1.25;;;;;;;;;;5061867;28;20173;-64
2023/03/14 12:49:57;;;;;;;4.53;1.70;;;;;;;;;;5060595;28;20151;-66
2023/03/14 12:52:40;;;;;;;3.22;1.67;;;;;;;;;;5057295;28;20967;-65
2023/03/14 12:55:29;;;;;;;1.77;1.10;;;;;;;;;;5062154;28;20171;-53
2023/03/14 12:58:04;;;;;;;4.47;1.33;;;;;;;;;;5057697;28;20507;-52
2023/03/14 13:00:41;;;;;;;2.10;1.50;;;;;;;;;;5061578;28;20063;-52
2023/03/14 13:03:15;;;;;;;2.75;1.10;;;;;;;;;;5062235;28;20072;-58
2023/03/14 13:05:53;;;;;;;2.55;1.25;;;;;;;;;;5056899;28;20052;-60
2023/03/14 13:08:34;;;;;;;1.60;1.10;;;;;;;;;;5055807;28;20059;-56
2023/03/14 13:11:12;;;;;;;1.70;1.15;;;;;;;;;;5058911;28;20132;-57
2023/03/14 13:13:45;;;;;;;1.40;1.00;;;;;;;;;;5059802;28;20422;-57
2023/03/14 13:16:21;;;;;;;4.80;0.88;;;;;;;;;;5061391;28;20052;-57
2023/03/14 13:18:49;;;;;;;2.20;1.05;;;;;;;;;;5054492;28;20045;-53
2023/03/14 13:21:35;;;;;;;2.80;1.25;;;;;;;;;;5041219;28;20081;-46
2023/03/14 13:24:04;;;;;;;1.70;1.08;;;;;;;;;;5044003;28;20045;-49
2023/03/14 13:26:39;;;;;;;4.53;0.82;;;;;;;;;;5042899;28;20059;-48
2023/03/14 13:29:32;;;;;;;2.55;1.17;;;;;;;;;;5044893;28;20143;-49
2023/03/14 13:32:23;;;;;;;1.95;0.90;;;;;;;;;;5036482;28;20056;-48
2023/03/14 13:35:04;;;;;;;1.75;0.90;;;;;;;;;;5042927;28;20428;-53
2023/03/14 13:37:45;;;;;;;1.70;0.80;;;;;;;;;;5043756;28;20061;-49
2023/03/14 13:40:19;;;;;;;4.05;0.90;;;;;;;;;;5044124;28;20052;-58
2023/03/14 13:43:05;;;;;;;0.60;0.60;;;;;;;;;;5039201;28;20922;-47
2023/03/14 13:45:41;;;;;;;1.23;1.05;;;;;;;;;;5041842;28;20058;-50
2023/03/14 13:48:16;;;;;;;1.10;0.90;;;;;;;;;;5039684;28;20053;-52
2023/03/14 13:50:49;;;;;;;1.40;0.88;;;;;;;;;;5040380;28;20095;-51
2023/03/14 13:53:24;;;;;;;2.60;1.90;;;;;;;;;;5041118;28;20111;-49
2023/03/14 13:55:52;;;;;;;1.27;1.02;;;;;;;;;;5042080;28;20112;-50
2023/03/14 13:58:27;;;;;;;1.55;1.15;;;;;;;;;;5046565;28;20610;-50
2023/03/14 14:01:05;;;;;;;2.72;0.95;;;;;;;;;;5044001;28;20750;-65
2023/03/14 14:03:34;;;;;;;1.50;1.00;;;;;;;;;;5043488;28;20056;-58
2023/03/14 14:06:17;;;;;;;0.90;0.80;;;;;;;;;;5039015;28;20143;-55
2023/03/14 14:08:45;;;;;;;1.85;0.98;;;;;;;;;;5045040;28;20499;-56
2023/03/14 14:11:21;;;;;;;2.42;0.90;;;;;;;;;;5043265;28;20087;-57
2023/03/14 14:13:54;;;;;;;1.10;1.00;;;;;;;;;;5042462;28;20995;-57
2023/03/14 14:16:29;;;;;;;1.20;0.80;;;;;;;;;;5046048;28;20084;-60
2023/03/14 14:19:03;;;;;;;1.27;1.00;;;;;;;;;;5048069;28;20057;-52
2023/03/14 14:21:44;;;;;;;1.20;1.00;;;;;;;;;;5063894;28;20053;-62
2023/03/14 14:24:14;;;;;;;1.58;1.20;;;;;;;;;;5063019;28;20136;-63
2023/03/14 14:26:48;;;;;;;2.47;1.20;;;;;;;;;;5063526;28;20056;-62
2023/03/14 14:29:30;;;;;;;1.45;0.85;;;;;;;;;;5061931;28;20497;-63
2023/03/14 14:32:10;;;;;;;1.40;1.17;;;;;;;;;;5062025;28;20076;-62
2023/03/14 14:34:51;;;;;;;2.15;1.20;;;;;;;;;;5063964;28;20068;-56
2023/03/14 14:37:26;;;;;;;1.30;1.20;;;;;;;;;;5064550;28;20051;-63
2023/03/14 14:40:10;;;;;;;2.92;1.50;;;;;;;;;;5062297;28;20052;-59
2023/03/14 14:42:40;;;;;;;1.52;1.10;;;;;;;;;;5062413;28;20789;-58
2023/03/14 14:45:15;;;;;;;2.70;1.20;;;;;;;;;;5061623;28;20515;-57
2023/03/14 14:47:52;;;;;;;2.53;1.77;;;;;;;;;;5058639;28;20454;-58
2023/03/14 14:50:38;;;;;;;4.80;2.50;;;;;;;;;;5060627;28;20496;-56
2023/03/14 14:53:20;;;;;;;3.05;1.75;;;;;;;;;;5065433;28;20139;-65
2023/03/14 14:55:58;;;;;;;1.88;1.45;;;;;;;;;;5065456;28;20491;-55
2023/03/14 14:58:38;;;;;;;1.70;1.45;;;;;;;;;;5065192;28;20910;-60
2023/03/14 15:01:15;;;;;;;1.48;1.38;;;;;;;;;;5063064;28;20048;-60
2023/03/14 15:03:46;;;;;;;1.45;1.20;;;;;;;;;;5063771;28;20052;-60
2023/03/14 15:06:20;;;;;;;3.70;1.30;;;;;;;;;;5060993;28;20133;-60
2023/03/14 15:08:48;;;;;;;1.33;1.10;;;;;;;;;;5057379;28;20151;-59
2023/03/14 15:11:20;;;;;;;1.20;1.08;;;;;;;;;;5061241;28;20045;-61
2023/03/14 15:13:54;;;;;;;1.08;0.95;;;;;;;;;;5062641;28;20136;-59
2023/03/14 15:16:27;;;;;;;1.27;1.00;;;;;;;;;;5061983;28;20040;-47
2023/03/14 15:19:09;;;;;;;0.95;0.75;;;;;;;;;;5058765;28;20080;-53
2023/03/14 15:21:50;;;;;;;;;;;;;;;;;;5063462;28;20067;-52
2023/03/14 15:24:31;;;;;;;1.15;0.95;;;;;;;;;;5058946;28;20006;-50
2023/03/14 15:26:58;;;;;;;1.60;1.10;;;;;;;;;;5060308;28;20500;-53
2023/03/14 15:29:32;;;;;;;1.02;0.75;;;;;;;;;;5056605;28;20534;-52